Time;durP1;ratioP1;P1;durP2;ratioP2;P2;SDS_P1;SDS_P2;PMS_P1;PMS_P2;Temp;Humidity;BMP_temperature;BMP_pressure;BME280_temperature;BME280_humidity;BME280_pressure;Samples;Min_cycle;Max_cycle;Signal;HPM_P1;HPM_P2
2022/04/27 00:01:48;;;;;;;10.82;6.55;;;5.70;92.20;;;;;;4939758;28;20102;-74
2022/04/27 00:04:13;;;;;;;7.72;5.55;;;5.60;92.30;;;;;;4932413;28;20086;-74
2022/04/27 00:06:39;;;;;;;9.48;6.35;;;5.50;92.50;;;;;;4934759;28;20039;-74
2022/04/27 00:09:05;;;;;;;8.55;5.20;;;5.50;92.60;;;;;;4943206;28;20094;-76
2022/04/27 00:11:30;;;;;;;7.90;5.00;;;5.50;92.60;;;;;;4938361;28;20028;-74
2022/04/27 00:13:58;;;;;;;8.55;5.50;;;5.40;92.80;;;;;;4934099;28;20055;-75
2022/04/27 00:16:23;;;;;;;9.07;5.22;;;5.40;93.00;;;;;;4940400;28;20043;-74
2022/04/27 00:18:49;;;;;;;7.70;6.10;;;5.40;93.00;;;;;;4939749;28;20057;-74
2022/04/27 00:21:14;;;;;;;9.18;5.55;;;5.40;93.00;;;;;;4936194;28;20024;-75
2022/04/27 00:23:40;;;;;;;9.23;5.22;;;5.40;92.90;;;;;;4960737;28;20039;-74
2022/04/27 00:26:06;;;;;;;9.65;5.55;;;5.30;93.20;;;;;;4940113;28;20106;-74
2022/04/27 00:28:32;;;;;;;10.80;6.20;;;5.30;93.10;;;;;;4938794;28;20121;-76
2022/04/27 00:30:58;;;;;;;7.40;5.65;;;5.30;93.20;;;;;;4933191;28;20510;-76
2022/04/27 00:33:23;;;;;;;8.43;5.97;;;5.20;93.10;;;;;;4939163;28;20046;-76
2022/04/27 00:35:49;;;;;;;8.55;5.45;;;5.20;93.30;;;;;;4940692;28;20106;-76
2022/04/27 00:38:14;;;;;;;10.25;5.65;;;5.20;93.30;;;;;;4940685;28;20038;-76
2022/04/27 00:40:40;;;;;;;9.82;6.43;;;5.10;93.30;;;;;;4939669;28;20110;-76
2022/04/27 00:43:06;;;;;;;9.43;6.45;;;5.10;93.40;;;;;;4937973;28;20063;-77
2022/04/27 00:45:31;;;;;;;8.80;5.53;;;5.00;93.40;;;;;;4938582;28;20031;-77
2022/04/27 00:47:57;;;;;;;7.85;5.55;;;5.00;93.80;;;;;;4939322;28;20494;-77
2022/04/27 00:50:23;;;;;;;8.40;6.25;;;5.00;93.90;;;;;;4945492;28;20118;-77
2022/04/27 00:52:49;;;;;;;10.23;6.43;;;4.90;93.70;;;;;;4938909;28;20065;-77
2022/04/27 00:55:15;;;;;;;10.98;6.78;;;4.90;93.70;;;;;;4937567;28;20035;-77
2022/04/27 00:57:46;;;;;;;8.93;6.45;;;4.90;93.70;;;;;;4938818;28;20034;-77
2022/04/27 01:00:13;;;;;;;9.57;6.30;;;4.90;93.60;;;;;;4937163;28;20119;-77
2022/04/27 01:02:40;;;;;;;10.68;6.65;;;4.80;93.60;;;;;;4937695;28;20027;-76
2022/04/27 01:05:11;;;;;;;10.82;5.82;;;4.70;93.60;;;;;;4937394;29;20024;-76
2022/04/27 01:07:40;;;;;;;8.10;6.18;;;4.70;93.80;;;;;;4942188;28;20094;-75
2022/04/27 01:10:08;;;;;;;10.38;6.93;;;4.70;94.30;;;;;;4935828;28;20023;-75
2022/04/27 01:12:35;;;;;;;11.80;7.75;;;4.80;94.00;;;;;;4935342;28;20039;-74
2022/04/27 01:15:01;;;;;;;9.38;5.88;;;4.90;94.00;;;;;;4943795;28;20046;-75
2022/04/27 01:17:26;;;;;;;16.55;6.88;;;5.00;93.80;;;;;;4947406;28;20041;-75
2022/04/27 01:19:52;;;;;;;9.73;6.15;;;5.10;93.70;;;;;;4938255;28;20507;-74
2022/04/27 01:22:18;;;;;;;12.05;5.68;;;5.30;93.40;;;;;;4936573;28;20059;-75
2022/04/27 01:24:44;;;;;;;9.65;5.80;;;5.50;93.20;;;;;;4937316;28;20032;-74
2022/04/27 01:27:10;;;;;;;12.93;5.68;;;5.60;93.00;;;;;;4934896;28;20020;-74
2022/04/27 01:29:37;;;;;;;11.23;6.80;;;5.70;92.70;;;;;;4945286;28;20031;-75
2022/04/27 01:32:03;;;;;;;11.68;6.30;;;5.80;92.60;;;;;;4938990;28;20032;-74
2022/04/27 01:34:29;;;;;;;10.23;6.78;;;5.90;92.60;;;;;;4938854;28;20170;-75
2022/04/27 01:37:59;;;;;;;11.13;5.78;;;6.10;92.50;;;;;;4939742;28;20074;-75
2022/04/27 01:39:41;;;;;;;9.98;6.28;;;6.10;92.00;;;;;;4935137;28;20238;-74
2022/04/27 01:42:07;;;;;;;9.30;6.07;;;6.20;92.00;;;;;;4935577;28;20545;-74
2022/04/27 01:44:32;;;;;;;9.43;6.53;;;6.30;91.90;;;;;;4935034;28;20035;-74
2022/04/27 01:46:59;;;;;;;9.95;6.40;;;6.30;92.00;;;;;;4937513;28;20031;-75
2022/04/27 01:49:25;;;;;;;8.95;5.50;;;6.40;92.20;;;;;;4935003;28;20027;-74
2022/04/27 01:54:34;;;;;;;9.35;6.05;;;6.50;92.00;;;;;;4932165;28;20080;-74
2022/04/27 01:57:00;;;;;;;9.93;6.43;;;6.60;92.00;;;;;;4938443;28;20471;-73
2022/04/27 01:59:26;;;;;;;9.23;5.93;;;6.60;91.80;;;;;;4942705;28;20061;-75
2022/04/27 02:01:51;;;;;;;10.98;6.20;;;6.60;91.70;;;;;;4937397;28;20576;-74
2022/04/27 02:04:17;;;;;;;10.55;5.60;;;6.60;91.70;;;;;;4938596;28;20801;-74
2022/04/27 02:06:42;;;;;;;9.55;5.78;;;6.60;91.70;;;;;;4936647;28;20039;-74
2022/04/27 02:09:08;;;;;;;9.13;5.88;;;6.50;91.80;;;;;;4938554;28;20632;-75
2022/04/27 02:11:34;;;;;;;8.57;5.60;;;6.40;91.80;;;;;;4942200;28;20550;-75
2022/04/27 02:14:00;;;;;;;10.32;6.35;;;6.30;92.00;;;;;;4934499;28;20126;-74
2022/04/27 02:16:28;;;;;;;8.32;5.47;;;6.20;92.30;;;;;;4937922;28;20055;-74
2022/04/27 02:18:55;;;;;;;10.18;6.15;;;6.10;92.50;;;;;;4954124;28;20039;-77
2022/04/27 02:21:21;;;;;;;9.52;6.07;;;5.90;92.70;;;;;;4936188;28;20622;-78
2022/04/27 02:23:47;;;;;;;8.65;6.20;;;5.90;93.00;;;;;;4937925;28;20530;-76
2022/04/27 02:26:13;;;;;;;9.32;6.30;;;5.80;93.10;;;;;;4935948;28;20835;-77
2022/04/27 02:28:38;;;;;;;14.10;7.43;;;5.70;93.40;;;;;;4941255;28;20043;-77
2022/04/27 02:31:04;;;;;;;9.93;6.68;;;5.50;93.50;;;;;;4940972;28;20074;-74
2022/04/27 02:33:30;;;;;;;9.93;6.57;;;5.40;93.70;;;;;;4940610;28;20061;-77
2022/04/27 02:35:56;;;;;;;7.70;6.05;;;5.30;93.90;;;;;;4955283;28;20487;-77
2022/04/27 02:38:22;;;;;;;12.50;6.40;;;5.20;94.00;;;;;;4940877;28;20039;-76
2022/04/27 02:40:48;;;;;;;9.95;6.47;;;5.10;94.10;;;;;;4958287;28;20032;-76
2022/04/27 02:43:14;;;;;;;9.85;5.70;;;5.00;94.20;;;;;;4944465;28;20130;-77
2022/04/27 02:45:41;;;;;;;11.05;6.32;;;4.90;94.30;;;;;;4940428;28;20027;-76
2022/04/27 02:48:07;;;;;;;9.02;6.10;;;4.80;94.50;;;;;;4939634;28;20035;-76
2022/04/27 02:53:17;;;;;;;11.63;7.65;;;4.70;94.80;;;;;;4939552;28;20398;-76
2022/04/27 02:55:44;;;;;;;11.15;7.30;;;4.70;95.00;;;;;;4941747;28;20091;-76
2022/04/27 02:58:10;;;;;;;10.25;6.72;;;4.70;95.40;;;;;;4940891;28;20039;-76
2022/04/27 03:00:36;;;;;;;11.52;6.78;;;4.70;95.30;;;;;;4937819;28;20045;-76
2022/04/27 03:03:02;;;;;;;16.15;7.88;;;4.80;95.50;;;;;;4937319;28;20597;-77
2022/04/27 03:05:28;;;;;;;12.50;7.28;;;4.90;95.50;;;;;;4938296;28;20027;-76
2022/04/27 03:07:53;;;;;;;14.30;8.13;;;4.80;95.50;;;;;;4940541;28;20082;-76
2022/04/27 03:10:20;;;;;;;11.65;7.18;;;4.90;95.70;;;;;;4943156;28;20046;-76
2022/04/27 03:12:46;;;;;;;17.80;8.20;;;4.90;95.70;;;;;;4939432;28;20551;-77
2022/04/27 03:15:12;;;;;;;16.90;7.82;;;5.00;95.80;;;;;;4940702;28;20562;-76
2022/04/27 03:17:37;;;;;;;11.13;7.32;;;5.00;95.70;;;;;;4942166;28;20041;-76
2022/04/27 03:20:04;;;;;;;14.05;7.85;;;5.10;95.70;;;;;;4940452;28;20118;-76
2022/04/27 03:22:30;;;;;;;18.58;8.15;;;5.30;95.70;;;;;;4942273;28;20035;-76
2022/04/27 03:24:55;;;;;;;15.93;8.80;;;5.50;95.60;;;;;;4942529;28;20037;-76
2022/04/27 03:27:21;;;;;;;15.50;8.13;;;5.60;95.40;;;;;;4945988;28;20042;-76
2022/04/27 03:29:47;;;;;;;13.45;8.18;;;5.70;95.30;;;;;;4948319;28;20109;-76
2022/04/27 03:32:12;;;;;;;13.10;7.88;;;5.90;95.10;;;;;;4940105;28;20059;-76
2022/04/27 03:34:38;;;;;;;15.50;8.45;;;6.00;95.00;;;;;;4952144;28;20118;-76
2022/04/27 03:37:04;;;;;;;16.83;7.97;;;6.00;94.80;;;;;;4939077;28;20394;-76
2022/04/27 03:39:29;;;;;;;14.52;8.35;;;6.10;94.70;;;;;;4940051;28;20043;-75
2022/04/27 03:41:57;;;;;;;16.90;7.85;;;6.20;94.50;;;;;;4942218;28;20038;-76
2022/04/27 03:44:22;;;;;;;14.52;8.68;;;6.40;94.50;;;;;;4942459;28;20027;-77
2022/04/27 03:46:48;;;;;;;18.45;9.98;;;6.40;94.40;;;;;;4944768;28;20031;-76
2022/04/27 03:49:14;;;;;;;13.63;8.73;;;6.50;94.20;;;;;;4941133;28;20043;-76
2022/04/27 03:51:39;;;;;;;12.05;8.20;;;6.50;94.20;;;;;;4939314;28;20138;-76
2022/04/27 03:54:05;;;;;;;15.00;8.23;;;6.60;94.20;;;;;;4945608;28;21628;-76
2022/04/27 03:56:31;;;;;;;13.95;7.90;;;6.70;93.80;;;;;;4939438;28;20022;-76
2022/04/27 03:58:57;;;;;;;13.10;7.57;;;6.80;93.70;;;;;;4935502;28;20566;-76
2022/04/27 04:01:23;;;;;;;14.32;7.97;;;6.80;93.40;;;;;;4939355;28;20112;-77
2022/04/27 04:03:49;;;;;;;12.80;7.38;;;6.90;93.10;;;;;;4939838;29;20043;-75
2022/04/27 04:06:14;;;;;;;14.45;7.53;;;7.00;93.20;;;;;;4940507;28;20035;-76
2022/04/27 04:08:40;;;;;;;13.05;7.80;;;7.00;92.90;;;;;;4939539;28;20027;-76
2022/04/27 04:11:06;;;;;;;14.88;7.18;;;7.10;93.00;;;;;;4939864;28;20027;-76
2022/04/27 04:13:31;;;;;;;14.30;8.35;;;7.10;92.90;;;;;;4937184;28;20047;-77
2022/04/27 04:15:57;;;;;;;14.13;7.40;;;7.10;93.10;;;;;;4936544;28;20047;-77
2022/04/27 04:18:22;;;;;;;11.07;6.63;;;7.10;92.90;;;;;;4939433;28;20032;-77
2022/04/27 04:20:48;;;;;;;13.50;7.80;;;7.20;92.50;;;;;;4933909;28;20852;-77
2022/04/27 04:23:14;;;;;;;15.00;7.00;;;7.20;92.30;;;;;;4940855;28;20808;-76
2022/04/27 04:28:29;;;;;;;14.02;7.45;;;7.30;92.30;;;;;;4936015;28;20042;-76
2022/04/27 04:30:55;;;;;;;;;;;7.30;92.30;;;;;;4940264;28;20058;-76
2022/04/27 04:33:21;;;;;;;12.10;7.25;;;7.30;92.20;;;;;;4936482;28;19930;-76
2022/04/27 04:35:47;;;;;;;12.88;6.30;;;7.30;92.20;;;;;;4944925;28;20031;-76
2022/04/27 04:38:13;;;;;;;15.82;9.43;;;7.30;91.40;;;;;;4938691;28;20098;-77
2022/04/27 04:40:38;;;;;;;11.75;6.88;;;7.40;91.90;;;;;;4942570;28;20030;-76
2022/04/27 04:43:04;;;;;;;13.80;6.55;;;7.30;92.00;;;;;;4938987;28;20030;-76
2022/04/27 04:45:30;;;;;;;12.55;6.30;;;7.50;91.20;;;;;;4937283;28;20101;-76
2022/04/27 04:47:55;;;;;;;12.70;6.32;;;7.40;91.30;;;;;;4935758;28;20450;-76
2022/04/27 04:50:21;;;;;;;13.55;6.68;;;7.40;91.60;;;;;;4938960;28;20607;-76
2022/04/27 04:52:47;;;;;;;11.48;6.35;;;7.50;91.40;;;;;;4938688;28;20519;-76
2022/04/27 04:55:12;;;;;;;12.23;5.90;;;7.50;91.20;;;;;;4938195;28;20087;-77
2022/04/27 04:57:38;;;;;;;9.80;6.20;;;7.40;91.20;;;;;;4940558;28;20042;-75
2022/04/27 05:00:05;;;;;;;14.02;7.20;;;7.50;91.50;;;;;;4942696;28;20031;-75
2022/04/27 05:02:31;;;;;;;13.60;6.82;;;7.50;91.50;;;;;;4939390;28;20027;-75
2022/04/27 05:04:58;;;;;;;13.05;6.72;;;7.50;90.90;;;;;;4938398;28;20392;-74
2022/04/27 05:07:23;;;;;;;12.32;7.10;;;7.60;91.10;;;;;;4938971;28;20063;-73
2022/04/27 05:09:49;;;;;;;12.05;6.75;;;7.60;91.20;;;;;;4939288;28;20073;-75
2022/04/27 05:12:15;;;;;;;12.52;6.60;;;7.60;90.80;;;;;;4937721;28;20031;-74
2022/04/27 05:14:41;;;;;;;14.05;7.28;;;7.60;90.40;;;;;;4934712;28;20121;-75
2022/04/27 05:17:06;;;;;;;13.60;6.65;;;7.60;90.80;;;;;;4937895;28;20031;-75
2022/04/27 05:19:32;;;;;;;11.30;6.53;;;7.60;90.50;;;;;;4936015;28;20451;-74
2022/04/27 05:21:57;;;;;;;12.73;6.70;;;7.60;90.70;;;;;;4935203;28;20346;-75
2022/04/27 05:24:23;;;;;;;16.63;7.05;;;7.60;90.70;;;;;;4935488;28;20755;-74
2022/04/27 05:26:49;;;;;;;11.10;6.07;;;7.70;91.00;;;;;;4933798;28;20041;-75
2022/04/27 05:31:59;;;;;;;11.50;6.55;;;7.70;90.70;;;;;;4939823;28;20142;-74
2022/04/27 05:34:26;;;;;;;13.55;6.88;;;7.70;91.00;;;;;;4937680;29;20133;-74
2022/04/27 05:36:52;;;;;;;15.23;7.25;;;7.70;90.60;;;;;;4939361;28;20034;-74
2022/04/27 05:39:20;;;;;;;9.90;6.38;;;7.70;90.60;;;;;;4945260;28;20051;-75
2022/04/27 05:41:50;;;;;;;14.82;7.43;;;7.70;90.70;;;;;;4941226;28;20034;-75
2022/04/27 05:44:24;;;;;;;11.00;6.03;;;7.80;90.60;;;;;;4938148;28;20039;-75
2022/04/27 05:46:54;;;;;;;13.07;6.18;;;7.80;90.40;;;;;;4939462;28;20114;-75
2022/04/27 05:49:20;;;;;;;11.57;6.03;;;7.90;89.80;;;;;;4942503;28;20038;-75
2022/04/27 05:51:47;;;;;;;11.02;5.22;;;7.90;89.40;;;;;;4945776;28;20038;-75
2022/04/27 05:54:16;;;;;;;8.90;5.72;;;7.90;90.00;;;;;;4941724;28;20053;-75
2022/04/27 05:56:42;;;;;;;48.03;22.05;;;8.00;90.10;;;;;;4935387;28;20028;-75
2022/04/27 05:59:09;;;;;;;12.82;6.82;;;8.00;89.30;;;;;;4947879;28;20025;-74
2022/04/27 06:01:34;;;;;;;11.52;6.10;;;8.10;89.60;;;;;;4945864;28;20039;-74
2022/04/27 06:04:00;;;;;;;10.90;5.95;;;8.00;89.50;;;;;;4943332;28;20501;-75
2022/04/27 06:06:26;;;;;;;10.18;5.00;;;8.10;89.00;;;;;;4948296;28;20134;-74
2022/04/27 06:08:52;;;;;;;9.05;5.57;;;8.10;89.50;;;;;;4952293;28;20031;-74
2022/04/27 06:11:19;;;;;;;11.27;4.93;;;8.10;87.80;;;;;;4946392;28;20483;-75
2022/04/27 06:13:46;;;;;;;8.13;5.68;;;8.20;88.00;;;;;;4951843;28;20065;-75
2022/04/27 06:16:13;;;;;;;9.68;5.00;;;8.20;87.30;;;;;;4950426;28;20511;-74
2022/04/27 06:18:40;;;;;;;11.48;5.32;;;8.30;88.00;;;;;;4950820;28;20126;-74
2022/04/27 06:21:07;;;;;;;11.60;4.90;;;8.30;86.50;;;;;;4947870;28;20049;-73
2022/04/27 06:23:33;;;;;;;28.98;11.85;;;8.40;86.90;;;;;;4936289;28;20110;-75
2022/04/27 06:25:59;;;;;;;8.85;4.95;;;8.40;86.60;;;;;;4909914;28;20487;-74
2022/04/27 06:28:24;;;;;;;7.55;4.82;;;8.40;86.00;;;;;;4954047;28;20487;-76
2022/04/27 06:30:50;;;;;;;10.73;4.97;;;8.40;86.10;;;;;;4933643;28;20042;-76
2022/04/27 06:33:15;;;;;;;8.82;4.78;;;8.50;86.30;;;;;;4946087;28;20619;-77
2022/04/27 06:35:41;;;;;;;7.25;4.40;;;8.60;86.10;;;;;;4937695;28;20043;-76
2022/04/27 06:38:07;;;;;;;18.65;11.00;;;8.60;85.80;;;;;;4937399;28;20046;-76
2022/04/27 06:40:34;;;;;;;12.65;6.07;;;8.70;84.80;;;;;;4937615;28;20034;-77
2022/04/27 06:42:59;;;;;;;7.40;4.13;;;8.70;85.50;;;;;;4934548;28;20027;-77
2022/04/27 06:45:27;;;;;;;6.78;3.63;;;8.90;84.50;;;;;;4937556;28;20050;-78
2022/04/27 06:47:54;;;;;;;11.90;4.18;;;8.90;84.30;;;;;;4930146;28;20027;-77
2022/04/27 06:50:20;;;;;;;5.95;4.10;;;9.00;84.40;;;;;;4925913;28;20532;-76
2022/04/27 06:52:46;;;;;;;4.90;3.80;;;9.10;85.00;;;;;;4924636;28;20765;-75
2022/04/27 06:55:12;;;;;;;7.78;4.60;;;9.20;83.50;;;;;;4923251;28;20039;-75
2022/04/27 06:57:38;;;;;;;7.80;3.67;;;9.40;82.90;;;;;;4924775;28;20471;-75
2022/04/27 07:00:04;;;;;;;10.13;4.30;;;9.40;82.80;;;;;;4924804;28;20161;-75
2022/04/27 07:02:32;;;;;;;4.90;2.83;;;9.50;82.60;;;;;;4929939;28;20034;-74
2022/04/27 07:05:00;;;;;;;5.97;2.88;;;9.60;78.90;;;;;;4934987;28;20045;-74
2022/04/27 07:07:29;;;;;;;5.30;3.30;;;9.70;79.40;;;;;;4935147;28;20035;-75
2022/04/27 07:09:56;;;;;;;5.22;3.25;;;9.90;79.60;;;;;;4937048;28;20041;-75
2022/04/27 07:12:22;;;;;;;4.93;3.00;;;10.00;77.60;;;;;;4932223;28;20035;-74
2022/04/27 07:14:48;;;;;;;3.80;2.33;;;10.10;77.00;;;;;;4937722;28;20081;-75
2022/04/27 07:17:14;;;;;;;5.05;2.45;;;10.20;76.70;;;;;;4934006;28;20498;-77
2022/04/27 07:19:40;;;;;;;4.28;2.33;;;10.40;76.00;;;;;;4943915;28;20082;-74
2022/04/27 07:22:06;;;;;;;2.50;2.30;;;10.40;76.50;;;;;;4930143;28;20026;-75
2022/04/27 07:24:33;;;;;;;3.15;2.10;;;10.60;74.80;;;;;;4921863;28;20031;-74
2022/04/27 07:26:58;;;;;;;4.13;1.95;;;10.70;74.90;;;;;;4919159;28;20066;-75
2022/04/27 07:29:24;;;;;;;3.10;2.08;;;10.70;71.10;;;;;;4923775;28;20123;-74
2022/04/27 07:31:50;;;;;;;3.20;2.22;;;10.70;71.10;;;;;;4929843;28;20098;-75
2022/04/27 07:34:16;;;;;;;2.42;1.98;;;10.60;69.90;;;;;;4939204;28;20042;-75
2022/04/27 07:36:41;;;;;;;6.40;2.70;;;10.80;72.00;;;;;;4937667;28;20681;-75
2022/04/27 07:39:07;;;;;;;6.13;2.30;;;10.90;70.90;;;;;;4936126;28;20044;-75
2022/04/27 07:41:33;;;;;;;4.78;2.05;;;11.00;69.40;;;;;;4935934;28;20655;-75
2022/04/27 07:43:59;;;;;;;5.70;1.77;;;11.30;68.00;;;;;;4940806;28;20035;-75
2022/04/27 07:46:24;;;;;;;3.50;2.08;;;11.60;69.00;;;;;;4941500;28;20045;-75
2022/04/27 07:48:54;;;;;;;3.05;2.10;;;12.10;67.00;;;;;;4939142;28;20031;-75
2022/04/27 07:51:19;;;;;;;4.55;1.80;;;12.50;65.30;;;;;;4951808;28;20037;-75
2022/04/27 07:53:45;;;;;;;3.40;2.10;;;13.20;66.70;;;;;;4935266;28;20068;-75
2022/04/27 07:56:11;;;;;;;1.98;1.70;;;13.50;62.60;;;;;;4933533;28;20631;-76
2022/04/27 07:58:37;;;;;;;3.83;1.80;;;13.70;64.50;;;;;;4916893;28;20146;-75
2022/04/27 08:01:03;;;;;;;6.53;2.28;;;14.50;59.90;;;;;;4931317;28;20040;-73
2022/04/27 08:03:29;;;;;;;3.33;1.50;;;14.50;57.70;;;;;;4934495;28;20060;-75
2022/04/27 08:05:55;;;;;;;2.17;1.92;;;15.50;55.20;;;;;;4926340;28;20031;-75
2022/04/27 08:08:21;;;;;;;1.83;1.30;;;18.60;51.10;;;;;;4929523;28;20035;-75
2022/04/27 08:10:46;;;;;;;2.95;1.23;;;19.10;46.90;;;;;;4928315;28;20502;-75
2022/04/27 08:13:12;;;;;;;1.50;1.40;;;18.50;46.90;;;;;;4931487;28;20039;-74
2022/04/27 08:15:38;;;;;;;3.20;1.77;;;17.60;48.60;;;;;;4931033;28;20478;-74
2022/04/27 08:18:06;;;;;;;3.13;1.48;;;16.50;49.00;;;;;;4927026;28;20034;-75
2022/04/27 08:23:20;;;;;;;2.92;1.65;;;14.90;53.40;;;;;;4931139;28;20066;-76
2022/04/27 08:25:47;;;;;;;1.30;1.20;;;14.50;56.40;;;;;;4920914;28;20387;-77
2022/04/27 08:28:14;;;;;;;1.83;1.63;;;14.40;56.20;;;;;;4920549;28;20255;-77
2022/04/27 08:30:42;;;;;;;3.88;1.30;;;14.30;56.90;;;;;;4929354;28;20043;-79
2022/04/27 08:33:08;;;;;;;4.50;1.70;;;14.30;58.50;;;;;;4918841;28;20464;-74
2022/04/27 08:35:36;;;;;;;4.13;1.40;;;14.50;55.50;;;;;;4921388;28;20094;-75
2022/04/27 08:38:03;;;;;;;3.25;1.55;;;14.30;56.90;;;;;;4926673;28;20041;-76
2022/04/27 08:40:29;;;;;;;3.92;1.80;;;14.40;55.80;;;;;;4916991;28;20098;-77
2022/04/27 08:42:56;;;;;;;1.88;1.60;;;14.30;56.70;;;;;;4913004;28;20023;-78
2022/04/27 08:45:22;;;;;;;3.75;1.52;;;14.30;56.00;;;;;;4925873;28;20049;-77
2022/04/27 08:47:51;;;;;;;2.75;1.40;;;14.00;57.60;;;;;;4915022;28;20118;-84
2022/04/27 08:50:20;;;;;;;3.67;1.50;;;14.00;55.80;;;;;;4911563;28;20023;-75
2022/04/27 08:52:47;;;;;;;6.20;1.48;;;13.80;58.20;;;;;;4922742;28;20185;-78
2022/04/27 08:55:13;;;;;;;4.80;1.40;;;13.90;58.40;;;;;;4909601;28;20630;-75
2022/04/27 08:57:40;;;;;;;2.60;1.20;;;13.80;60.40;;;;;;4914998;28;20027;-76
2022/04/27 09:00:08;;;;;;;2.97;1.40;;;14.00;56.90;;;;;;4917816;28;20043;-76
2022/04/27 09:02:35;;;;;;;4.53;1.50;;;14.30;57.30;;;;;;4914113;28;20118;-76
2022/04/27 09:05:12;;;;;;;2.25;1.42;;;14.70;57.80;;;;;;4926184;28;20521;-76
2022/04/27 09:07:52;;;;;;;1.60;1.45;;;14.90;56.10;;;;;;4913148;28;20067;-76
2022/04/27 09:10:25;;;;;;;1.63;1.15;;;15.60;55.10;;;;;;4923170;28;20573;-76
2022/04/27 09:12:52;;;;;;;3.33;1.30;;;16.00;54.20;;;;;;4915436;28;20035;-77
2022/04/27 09:15:23;;;;;;;2.28;1.25;;;15.70;53.50;;;;;;4919888;29;20583;-76
2022/04/27 09:20:55;;;;;;;2.50;0.95;;;15.80;54.00;;;;;;4937135;28;20045;-76
2022/04/27 09:23:23;;;;;;;5.65;1.67;;;15.50;53.20;;;;;;4936325;28;20039;-75
2022/04/27 09:26:12;;;;;;;4.05;1.50;;;15.50;53.80;;;;;;4925254;29;20063;-76
2022/04/27 09:28:38;;;;;;;1.67;1.50;;;15.70;54.10;;;;;;4911957;28;20063;-75
2022/04/27 09:31:03;;;;;;;4.95;1.50;;;15.60;53.20;;;;;;4930758;28;20118;-76
2022/04/27 09:33:33;;;;;;;3.47;1.70;;;15.70;51.20;;;;;;4954212;28;20035;-76
2022/04/27 09:35:59;;;;;;;3.38;1.42;;;15.90;52.60;;;;;;4934696;29;20028;-75
2022/04/27 09:38:26;;;;;;;3.13;1.70;;;16.00;51.30;;;;;;4941476;28;20031;-76
2022/04/27 09:40:54;;;;;;;2.38;1.52;;;15.70;52.30;;;;;;4952380;28;20649;-74
2022/04/27 09:43:49;;;;;;;3.20;1.63;;;15.90;50.80;;;;;;4937415;29;20066;-74
2022/04/27 09:46:22;;;;;;;4.22;1.48;;;16.00;52.50;;;;;;4924434;28;20894;-74
2022/04/27 09:49:11;;;;;;;1.83;1.00;;;15.80;48.40;;;;;;4953893;28;20038;-75
2022/04/27 09:51:46;;;;;;;3.67;3.03;;;15.90;52.20;;;;;;4937812;29;20059;-76
2022/04/27 09:54:18;;;;;;;1.90;1.40;;;15.80;54.10;;;;;;4940675;28;20043;-76
2022/04/27 09:56:51;;;;;;;3.13;1.88;;;16.00;49.90;;;;;;4959705;28;20031;-76
2022/04/27 09:59:18;;;;;;;2.33;1.70;;;16.40;51.80;;;;;;4958081;28;20770;-76
2022/04/27 10:01:45;;;;;;;4.38;1.75;;;16.50;49.90;;;;;;4959951;28;20023;-76
2022/04/27 10:04:13;;;;;;;4.28;1.88;;;16.80;50.90;;;;;;4948025;28;20500;-75
2022/04/27 10:06:39;;;;;;;3.28;1.58;;;17.00;49.00;;;;;;4923843;28;20039;-77
2022/04/27 10:09:05;;;;;;;2.70;1.63;;;16.80;50.20;;;;;;4928275;28;20069;-73
2022/04/27 10:11:32;;;;;;;2.97;1.70;;;17.10;51.30;;;;;;4929750;28;20049;-76
2022/04/27 10:13:58;;;;;;;1.90;1.30;;;17.40;47.70;;;;;;4944364;28;20051;-75
2022/04/27 10:16:25;;;;;;;1.38;1.00;;;17.20;45.00;;;;;;4946039;28;20042;-75
2022/04/27 10:18:51;;;;;;;2.33;1.25;;;17.00;44.70;;;;;;4926549;29;20095;-76
2022/04/27 10:21:39;;;;;;;2.22;1.25;;;16.70;46.00;;;;;;4928665;29;20123;-76
2022/04/27 10:24:08;;;;;;;1.60;1.50;;;16.60;46.50;;;;;;4932142;28;20665;-75
2022/04/27 10:26:34;;;;;;;6.03;2.10;;;16.40;47.10;;;;;;4932955;28;20086;-76
2022/04/27 10:29:04;;;;;;;2.10;1.17;;;16.40;48.70;;;;;;4930532;28;20031;-78
2022/04/27 10:31:55;;;;;;;2.50;1.38;;;16.40;50.90;;;;;;4930090;28;20038;-77
2022/04/27 10:34:23;;;;;;;1.98;1.23;;;16.00;52.70;;;;;;4932500;28;20675;-77
2022/04/27 10:36:51;;;;;;;2.97;1.50;;;16.10;49.70;;;;;;4932396;28;20035;-76
2022/04/27 10:39:19;;;;;;;3.63;1.40;;;15.90;49.60;;;;;;4932942;28;20398;-77
2022/04/27 10:41:54;;;;;;;2.00;1.13;;;15.60;48.30;;;;;;4929181;28;20118;-75
2022/04/27 10:44:59;;;;;;;1.92;0.98;;;15.30;48.00;;;;;;4932546;28;20043;-75
2022/04/27 10:47:45;;;;;;;2.63;1.10;;;14.90;52.80;;;;;;4923595;28;20281;-77
2022/04/27 10:50:13;;;;;;;1.98;1.30;;;15.00;52.50;;;;;;4930342;28;20032;-76
2022/04/27 10:52:55;;;;;;;1.42;1.00;;;15.10;52.20;;;;;;4935581;28;20035;-75
2022/04/27 10:55:35;;;;;;;2.60;1.63;;;15.20;51.40;;;;;;4931496;28;20070;-74
2022/04/27 10:58:30;;;;;;;1.88;1.77;;;15.30;54.50;;;;;;4942245;28;20050;-77
2022/04/27 11:01:01;;;;;;;4.97;1.42;;;15.30;55.90;;;;;;4923089;28;20035;-76
2022/04/27 11:03:35;;;;;;;1.92;1.75;;;15.50;56.60;;;;;;4938468;28;20043;-75
2022/04/27 11:06:04;;;;;;;5.65;2.05;;;15.60;53.80;;;;;;4935482;28;20042;-77
2022/04/27 11:08:43;;;;;;;8.00;2.05;;;16.00;54.50;;;;;;4948210;28;20031;-76
2022/04/27 11:11:09;;;;;;;2.72;1.98;;;16.50;55.50;;;;;;4943213;28;20094;-74
2022/04/27 11:13:42;;;;;;;4.13;1.70;;;17.00;50.90;;;;;;4944769;28;20034;-76
2022/04/27 11:16:18;;;;;;;2.67;1.23;;;16.70;50.00;;;;;;4938874;28;20058;-74
2022/04/27 11:18:49;;;;;;;3.90;1.83;;;16.10;50.40;;;;;;4934637;28;20546;-77
2022/04/27 11:21:17;;;;;;;7.75;1.90;;;16.10;49.90;;;;;;4935090;29;20043;-76
2022/04/27 11:23:43;;;;;;;1.70;1.33;;;16.10;51.80;;;;;;4948537;28;20047;-76
2022/04/27 11:26:09;;;;;;;4.60;2.00;;;16.00;53.00;;;;;;4945447;28;20537;-75
2022/04/27 11:28:39;;;;;;;3.50;1.55;;;16.40;53.20;;;;;;4935227;28;20027;-76
2022/04/27 11:31:06;;;;;;;3.20;1.50;;;16.80;49.30;;;;;;4936073;28;20506;-76
2022/04/27 11:33:35;;;;;;;1.83;1.05;;;16.80;49.30;;;;;;4951263;28;22022;-77
2022/04/27 11:36:01;;;;;;;5.63;1.63;;;16.80;53.00;;;;;;4933303;28;20335;-75
2022/04/27 11:38:36;;;;;;;4.32;1.30;;;17.20;51.00;;;;;;4938244;28;20863;-75
2022/04/27 11:41:13;;;;;;;2.35;1.23;;;17.20;48.40;;;;;;4946593;28;20033;-77
2022/04/27 11:43:38;;;;;;;3.90;1.10;;;17.00;46.50;;;;;;4960668;28;20043;-77
2022/04/27 11:46:04;;;;;;;4.05;1.23;;;17.00;47.90;;;;;;4955226;28;20052;-76
2022/04/27 11:48:30;;;;;;;1.98;1.02;;;16.80;46.80;;;;;;4955928;28;20431;-78
2022/04/27 11:50:57;;;;;;;1.38;1.20;;;16.20;45.10;;;;;;4947666;28;20091;-77
2022/04/27 11:53:23;;;;;;;4.15;1.58;;;15.50;49.00;;;;;;4937031;28;20479;-76
2022/04/27 11:55:50;;;;;;;2.58;1.88;;;14.90;50.50;;;;;;4936473;28;20039;-77
2022/04/27 11:58:26;;;;;;;3.22;1.38;;;14.40;53.60;;;;;;4938635;28;20024;-74
2022/04/27 12:00:56;;;;;;;2.35;1.75;;;14.10;54.60;;;;;;4948766;28;20501;-77
2022/04/27 12:03:23;;;;;;;2.92;1.60;;;13.70;55.30;;;;;;4944363;28;20039;-75
2022/04/27 12:05:53;;;;;;;5.00;2.55;;;13.50;55.50;;;;;;4936716;28;20538;-76
2022/04/27 12:08:21;;;;;;;3.67;1.53;;;13.40;56.10;;;;;;4918280;28;20434;-74
2022/04/27 12:10:49;;;;;;;1.90;1.77;;;13.40;54.60;;;;;;4952563;28;20046;-75
2022/04/27 12:13:15;;;;;;;2.28;1.45;;;13.60;55.90;;;;;;4938132;28;20034;-77
2022/04/27 12:15:45;;;;;;;4.15;1.38;;;13.90;54.70;;;;;;4935751;29;20153;-75
2022/04/27 12:18:15;;;;;;;1.67;1.58;;;14.00;54.20;;;;;;4934086;28;20044;-74
2022/04/27 12:20:43;;;;;;;4.50;1.53;;;14.10;54.60;;;;;;4935259;28;20110;-74
2022/04/27 12:23:13;;;;;;;3.97;2.10;;;13.90;55.50;;;;;;4931897;28;20041;-76
2022/04/27 12:25:52;;;;;;;3.53;1.73;;;13.80;56.80;;;;;;4939329;29;20308;-76
2022/04/27 12:28:23;;;;;;;4.55;1.80;;;13.60;58.30;;;;;;4935159;28;20035;-74
2022/04/27 12:30:54;;;;;;;2.27;1.87;;;13.60;57.50;;;;;;4953806;28;20038;-79
2022/04/27 12:33:24;;;;;;;;;;;13.40;58.90;;;;;;4917808;29;20130;-74
2022/04/27 12:39:23;;;;;;;7.15;1.45;;;13.90;59.50;;;;;;4936192;29;20124;-75
2022/04/27 12:41:50;;;;;;;3.38;1.25;;;14.10;58.40;;;;;;4885301;29;20606;-75
2022/04/27 12:44:40;;;;;;;4.63;1.85;;;14.50;55.30;;;;;;4931183;28;20514;-76
2022/04/27 12:47:11;;;;;;;4.25;1.50;;;14.90;57.90;;;;;;4927908;28;20054;-76
2022/04/27 12:49:39;;;;;;;3.63;1.60;;;15.30;54.10;;;;;;4930234;28;20121;-78
2022/04/27 12:52:33;;;;;;;2.78;1.33;;;15.60;56.20;;;;;;4930701;28;20032;-77
2022/04/27 12:55:09;;;;;;;1.48;1.25;;;15.60;50.80;;;;;;4934338;28;20039;-76
2022/04/27 12:57:48;;;;;;;6.30;1.63;;;15.60;51.00;;;;;;4932272;28;20059;-77
2022/04/27 13:00:16;;;;;;;4.28;1.80;;;15.40;52.10;;;;;;4945046;28;20035;-76
2022/04/27 13:02:42;;;;;;;7.18;1.58;;;15.00;51.50;;;;;;4931969;28;20054;-75
2022/04/27 13:05:11;;;;;;;5.88;2.00;;;14.90;51.50;;;;;;4935783;28;20034;-75
2022/04/27 13:07:37;;;;;;;3.22;1.60;;;14.80;54.70;;;;;;4933030;28;20118;-74
2022/04/27 13:12:49;;;;;;;1.50;1.35;;;15.00;55.60;;;;;;4938486;28;20117;-75
2022/04/27 13:15:15;;;;;;;3.85;1.42;;;14.90;52.80;;;;;;4933327;28;20557;-74
2022/04/27 13:17:42;;;;;;;4.60;1.40;;;14.70;55.50;;;;;;4933647;28;20057;-75